Time;durP1;ratioP1;P1;durP2;ratioP2;P2;SDS_P1;SDS_P2;PMS_P1;PMS_P2;Temp;Humidity;BMP_temperature;BMP_pressure;BME280_temperature;BME280_humidity;BME280_pressure;Samples;Min_cycle;Max_cycle;Signal;HPM_P1;HPM_P2
2022/03/16 00:01:24;;;;;;;13.85;6.85;;;5.30;99.90;;;;;;5095718;28;20016;-72
2022/03/16 00:03:50;;;;;;;12.10;6.13;;;5.30;99.90;;;;;;5093946;28;20070;-72
2022/03/16 00:06:15;;;;;;;11.27;5.95;;;5.30;99.90;;;;;;5095949;28;20024;-73
2022/03/16 00:08:41;;;;;;;11.85;6.25;;;5.20;99.90;;;;;;5095439;28;20119;-72
2022/03/16 00:11:06;;;;;;;15.05;6.00;;;5.20;99.90;;;;;;5095522;28;20035;-72
2022/03/16 00:13:32;;;;;;;12.45;5.82;;;5.30;99.90;;;;;;5095186;28;20032;-72
2022/03/16 00:15:58;;;;;;;13.45;5.82;;;5.20;99.90;;;;;;5095226;28;20389;-72
2022/03/16 00:18:23;;;;;;;19.77;7.18;;;5.20;99.90;;;;;;5095574;28;20020;-72
2022/03/16 00:20:50;;;;;;;16.10;6.85;;;5.20;99.90;;;;;;5095259;28;20054;-72
2022/03/16 00:23:16;;;;;;;12.88;6.50;;;5.20;99.90;;;;;;5095269;28;20095;-72
2022/03/16 00:25:42;;;;;;;14.90;7.35;;;5.10;99.90;;;;;;5094793;28;20058;-72
2022/03/16 00:28:08;;;;;;;12.88;6.22;;;5.00;99.90;;;;;;5095128;28;20090;-72
2022/03/16 00:30:35;;;;;;;20.80;7.30;;;5.00;99.90;;;;;;5095356;28;20031;-72
2022/03/16 00:33:00;;;;;;;15.70;5.75;;;5.00;99.90;;;;;;5095372;28;20024;-72
2022/03/16 00:35:26;;;;;;;12.35;5.93;;;4.90;99.90;;;;;;5094491;28;20028;-72
2022/03/16 00:37:51;;;;;;;14.90;7.10;;;4.80;99.90;;;;;;5094876;28;20019;-72
2022/03/16 00:40:17;;;;;;;14.43;7.10;;;4.80;99.90;;;;;;5096081;28;20049;-73
2022/03/16 00:42:42;;;;;;;13.50;7.35;;;4.80;99.90;;;;;;5094876;28;20031;-73
2022/03/16 00:45:08;;;;;;;15.55;6.22;;;4.80;99.90;;;;;;5093698;28;20381;-73
2022/03/16 00:47:34;;;;;;;12.57;6.65;;;4.70;99.90;;;;;;5094748;28;20055;-72
2022/03/16 00:49:59;;;;;;;14.15;6.90;;;4.70;99.90;;;;;;5095005;28;20090;-71
2022/03/16 00:52:25;;;;;;;15.70;6.88;;;4.70;99.90;;;;;;5094544;28;20028;-71
2022/03/16 00:54:50;;;;;;;12.80;6.10;;;4.70;99.90;;;;;;5094616;28;20024;-71
2022/03/16 00:57:16;;;;;;;14.15;6.80;;;4.70;99.90;;;;;;5094570;28;20024;-71
2022/03/16 00:59:42;;;;;;;13.80;7.00;;;4.70;99.90;;;;;;5094603;28;20077;-71
2022/03/16 01:02:07;;;;;;;15.23;7.47;;;4.70;99.90;;;;;;5095091;28;20025;-70
2022/03/16 01:04:33;;;;;;;13.88;6.55;;;4.70;99.90;;;;;;5092805;28;20380;-72
2022/03/16 01:06:58;;;;;;;14.90;6.80;;;4.60;99.90;;;;;;5093240;28;20024;-71
2022/03/16 01:09:24;;;;;;;13.02;6.60;;;4.60;99.90;;;;;;5094273;28;20481;-71
2022/03/16 01:11:50;;;;;;;15.82;7.22;;;4.50;99.90;;;;;;5093223;28;20131;-72
2022/03/16 01:14:17;;;;;;;21.90;7.97;;;4.40;99.90;;;;;;5094262;28;20024;-72
2022/03/16 01:16:42;;;;;;;15.05;7.35;;;4.40;99.90;;;;;;5094223;28;20028;-72
2022/03/16 01:19:08;;;;;;;13.85;6.35;;;4.40;99.90;;;;;;5094163;28;20024;-72
2022/03/16 01:21:35;;;;;;;12.63;6.80;;;4.40;99.90;;;;;;5092963;28;20012;-72
2022/03/16 01:24:00;;;;;;;21.92;9.10;;;4.40;99.90;;;;;;5094113;28;20028;-72
2022/03/16 01:26:26;;;;;;;15.70;7.50;;;4.40;99.90;;;;;;5094198;28;20020;-72
2022/03/16 01:28:52;;;;;;;17.38;8.00;;;4.40;99.90;;;;;;5094262;28;20161;-72
2022/03/16 01:31:21;;;;;;;16.17;7.30;;;4.50;99.90;;;;;;5094063;28;20031;-72
2022/03/16 01:33:47;;;;;;;19.38;9.05;;;4.40;99.90;;;;;;5093862;28;20028;-72
2022/03/16 01:36:12;;;;;;;19.27;8.50;;;4.40;99.90;;;;;;5092707;28;20062;-72
2022/03/16 01:38:38;;;;;;;18.35;8.10;;;4.40;99.90;;;;;;5094042;28;20485;-72
2022/03/16 01:41:03;;;;;;;16.75;8.02;;;4.30;99.90;;;;;;5094441;28;20115;-71
2022/03/16 01:43:29;;;;;;;17.13;8.48;;;4.30;99.90;;;;;;5093598;28;20016;-72
2022/03/16 01:45:55;;;;;;;20.90;8.27;;;4.30;99.90;;;;;;5093707;28;20482;-71
2022/03/16 01:48:20;;;;;;;16.35;8.10;;;4.20;99.90;;;;;;5093917;28;20024;-72
2022/03/16 01:50:49;;;;;;;20.05;9.73;;;4.20;99.90;;;;;;5093688;28;20095;-72
2022/03/16 01:53:16;;;;;;;22.02;8.98;;;4.30;99.90;;;;;;5093925;28;20392;-73
2022/03/16 01:55:43;;;;;;;25.95;9.52;;;4.30;99.90;;;;;;5093230;28;20028;-72
2022/03/16 01:58:10;;;;;;;18.77;9.18;;;4.30;99.90;;;;;;5093517;28;20070;-72
2022/03/16 02:00:36;;;;;;;19.90;8.48;;;4.30;99.90;;;;;;5093570;28;20019;-71
2022/03/16 02:03:01;;;;;;;22.02;10.20;;;4.30;99.90;;;;;;5093699;28;20028;-72
2022/03/16 02:05:28;;;;;;;24.95;10.60;;;4.30;99.90;;;;;;5093395;28;20106;-72
2022/03/16 02:07:54;;;;;;;25.55;10.80;;;4.30;99.90;;;;;;5092667;28;20405;-72
2022/03/16 02:10:20;;;;;;;24.75;11.40;;;4.30;99.90;;;;;;5093783;28;20023;-72
2022/03/16 02:12:51;;;;;;;23.25;10.93;;;4.40;99.90;;;;;;5093440;28;20028;-71
2022/03/16 02:15:18;;;;;;;22.95;10.80;;;4.40;99.90;;;;;;5093632;28;20367;-73
2022/03/16 02:17:43;;;;;;;28.67;11.65;;;4.40;99.90;;;;;;5092217;28;20025;-72
2022/03/16 02:20:10;;;;;;;22.20;10.45;;;4.40;99.90;;;;;;5092200;28;20388;-72
2022/03/16 02:22:37;;;;;;;28.45;12.85;;;4.40;99.90;;;;;;5093596;28;20442;-72
2022/03/16 02:25:04;;;;;;;22.13;10.32;;;4.40;99.90;;;;;;5093072;28;20103;-72
2022/03/16 02:27:29;;;;;;;27.20;11.68;;;4.40;99.90;;;;;;5093513;28;20031;-72
2022/03/16 02:29:55;;;;;;;25.33;11.43;;;4.40;99.90;;;;;;5093524;28;20020;-72
2022/03/16 02:32:21;;;;;;;26.25;11.40;;;4.40;99.90;;;;;;5093228;28;20028;-72
2022/03/16 02:34:46;;;;;;;30.10;12.55;;;4.40;99.90;;;;;;5092908;28;20056;-72
2022/03/16 02:37:12;;;;;;;29.05;13.02;;;4.40;99.90;;;;;;5093345;28;20037;-72
2022/03/16 02:39:37;;;;;;;29.58;13.05;;;4.40;99.90;;;;;;5092966;28;20016;-71
2022/03/16 02:42:04;;;;;;;28.83;13.15;;;4.40;99.90;;;;;;5092066;28;20064;-72
2022/03/16 02:44:30;;;;;;;29.63;13.85;;;4.40;99.90;;;;;;5091986;28;20028;-72
2022/03/16 02:46:55;;;;;;;31.00;13.07;;;4.40;99.90;;;;;;5093270;28;20076;-71
2022/03/16 02:49:21;;;;;;;33.80;14.10;;;4.40;99.90;;;;;;5092783;28;20020;-71
2022/03/16 02:51:47;;;;;;;32.70;13.70;;;4.40;99.90;;;;;;5092188;28;20028;-71
2022/03/16 02:54:12;;;;;;;32.05;13.25;;;4.40;99.90;;;;;;5091806;28;20024;-71
2022/03/16 02:56:38;;;;;;;37.75;14.38;;;4.40;99.90;;;;;;5092974;28;20072;-72
2022/03/16 02:59:03;;;;;;;34.90;14.07;;;4.50;99.90;;;;;;5093278;28;20078;-71
2022/03/16 03:01:31;;;;;;;33.90;14.07;;;4.50;99.90;;;;;;5093142;28;20025;-72
2022/03/16 03:03:57;;;;;;;33.92;13.88;;;4.50;99.90;;;;;;5093074;28;20048;-71
2022/03/16 03:06:22;;;;;;;33.47;14.73;;;4.50;99.90;;;;;;5091759;28;20020;-72
2022/03/16 03:08:48;;;;;;;32.92;13.40;;;4.50;99.90;;;;;;5095744;28;20477;-73
2022/03/16 03:11:14;;;;;;;39.65;14.48;;;4.50;99.90;;;;;;5097339;28;20457;-74
2022/03/16 03:13:40;;;;;;;33.63;14.02;;;4.50;99.90;;;;;;5097033;28;20473;-75
2022/03/16 03:16:06;;;;;;;32.78;13.70;;;4.50;99.90;;;;;;5096646;28;20020;-75
2022/03/16 03:18:33;;;;;;;36.80;13.98;;;4.50;99.90;;;;;;5094976;28;20024;-75
2022/03/16 03:20:59;;;;;;;34.38;13.82;;;4.50;99.90;;;;;;5095524;28;20020;-74
2022/03/16 03:23:24;;;;;;;33.47;14.43;;;4.50;99.90;;;;;;5095401;28;20024;-75
2022/03/16 03:25:50;;;;;;;33.05;13.70;;;4.50;99.90;;;;;;5095728;28;20046;-75
2022/03/16 03:28:16;;;;;;;34.15;13.80;;;4.50;99.90;;;;;;5096357;28;20024;-75
2022/03/16 03:30:41;;;;;;;30.63;13.60;;;4.50;99.90;;;;;;5095032;28;20031;-75
2022/03/16 03:33:07;;;;;;;30.00;13.15;;;4.30;99.90;;;;;;5095046;28;20031;-75
2022/03/16 03:35:32;;;;;;;28.50;12.70;;;4.40;99.90;;;;;;5096254;28;20032;-75
2022/03/16 03:37:58;;;;;;;34.05;13.73;;;4.50;99.90;;;;;;5095805;28;20091;-75
2022/03/16 03:40:24;;;;;;;33.88;13.35;;;4.40;99.90;;;;;;5096106;28;20106;-75
2022/03/16 03:42:51;;;;;;;30.45;11.93;;;4.50;99.90;;;;;;5096778;28;20469;-71
2022/03/16 03:45:17;;;;;;;26.08;12.30;;;4.40;99.90;;;;;;5094472;28;20024;-72
2022/03/16 03:47:42;;;;;;;31.30;13.38;;;4.40;99.90;;;;;;5094789;28;20030;-72
2022/03/16 03:50:11;;;;;;;33.47;13.07;;;4.40;99.90;;;;;;5096146;28;20028;-72
2022/03/16 03:52:37;;;;;;;;;;;4.40;99.90;;;;;;5096456;28;20090;-72
2022/03/16 03:55:03;;;;;;;30.42;12.75;;;4.40;99.90;;;;;;5095733;28;19970;-72
2022/03/16 03:57:29;;;;;;;31.77;12.45;;;4.40;99.90;;;;;;5096102;28;20028;-73
2022/03/16 03:59:54;;;;;;;30.95;13.27;;;4.50;99.90;;;;;;5095780;28;20020;-72
2022/03/16 04:02:20;;;;;;;31.85;12.70;;;4.40;99.90;;;;;;5095812;28;20081;-72
2022/03/16 04:04:46;;;;;;;30.30;12.45;;;4.50;99.90;;;;;;5095210;28;20095;-72
2022/03/16 04:07:11;;;;;;;29.17;12.10;;;4.50;99.90;;;;;;5093555;28;20024;-72
2022/03/16 04:09:37;;;;;;;30.25;13.52;;;4.50;99.90;;;;;;5094341;28;20028;-72
2022/03/16 04:12:03;;;;;;;31.30;13.30;;;4.50;99.90;;;;;;5095876;28;20377;-71
2022/03/16 04:14:28;;;;;;;30.77;13.43;;;4.50;99.90;;;;;;5095162;28;20023;-72
2022/03/16 04:16:54;;;;;;;29.05;13.13;;;4.50;99.90;;;;;;5095713;28;20028;-72
2022/03/16 04:19:19;;;;;;;29.70;13.23;;;4.50;99.90;;;;;;5093921;28;20016;-71
2022/03/16 04:21:45;;;;;;;29.98;13.15;;;4.50;99.90;;;;;;5095630;28;20062;-72
2022/03/16 04:24:10;;;;;;;27.60;12.02;;;4.50;99.90;;;;;;5093912;28;20039;-73
2022/03/16 04:26:36;;;;;;;28.83;13.88;;;4.50;99.90;;;;;;5093918;28;20024;-71
2022/03/16 04:29:01;;;;;;;34.03;13.80;;;4.60;99.90;;;;;;5095272;28;20105;-72
2022/03/16 04:31:27;;;;;;;26.80;11.88;;;4.60;99.90;;;;;;5095441;28;20411;-72
2022/03/16 04:33:53;;;;;;;25.73;12.18;;;4.60;99.90;;;;;;5094892;28;20028;-72
2022/03/16 04:36:18;;;;;;;26.08;11.93;;;4.60;99.90;;;;;;5095081;28;20032;-71
2022/03/16 04:38:45;;;;;;;28.15;11.90;;;4.60;99.90;;;;;;5094496;28;20028;-71
2022/03/16 04:41:10;;;;;;;29.98;12.18;;;4.60;99.90;;;;;;5095006;28;20093;-71
2022/03/16 04:43:36;;;;;;;29.35;11.95;;;4.70;99.90;;;;;;5095197;28;20095;-72
2022/03/16 04:46:01;;;;;;;27.10;11.75;;;4.70;99.90;;;;;;5094900;28;20024;-71
2022/03/16 04:48:27;;;;;;;26.75;11.77;;;4.60;99.90;;;;;;5094936;28;20012;-71
2022/03/16 04:50:52;;;;;;;25.90;11.57;;;4.60;99.90;;;;;;5095188;28;20027;-71
2022/03/16 04:53:18;;;;;;;23.60;11.55;;;4.60;99.90;;;;;;5093304;28;20028;-71
2022/03/16 04:55:43;;;;;;;27.98;11.38;;;4.60;99.90;;;;;;5094751;28;20062;-72
2022/03/16 04:58:09;;;;;;;25.30;11.02;;;4.60;99.90;;;;;;5094716;28;20457;-71
2022/03/16 05:00:36;;;;;;;25.83;10.82;;;4.60;99.90;;;;;;5093605;28;20109;-71
2022/03/16 05:03:02;;;;;;;26.52;12.07;;;4.60;99.90;;;;;;5094461;28;20421;-71
2022/03/16 05:05:28;;;;;;;25.83;11.23;;;4.60;99.90;;;;;;5094321;28;20103;-71
2022/03/16 05:07:55;;;;;;;24.08;10.80;;;4.60;99.90;;;;;;5094260;28;20032;-71
2022/03/16 05:10:20;;;;;;;24.98;11.85;;;4.60;99.90;;;;;;5094989;28;20465;-71
2022/03/16 05:12:46;;;;;;;26.15;11.48;;;4.60;99.90;;;;;;5094150;28;20070;-72
2022/03/16 05:15:18;;;;;;;27.00;12.05;;;4.60;99.90;;;;;;5093128;28;20024;-72
2022/03/16 05:17:44;;;;;;;25.48;11.88;;;4.60;99.90;;;;;;5092942;28;20020;-72
2022/03/16 05:20:11;;;;;;;23.42;11.20;;;4.60;99.90;;;;;;5093110;28;20068;-72
2022/03/16 05:22:55;;;;;;;23.90;10.20;;;4.60;99.90;;;;;;5094514;28;20103;-72
2022/03/16 05:25:26;;;;;;;25.42;11.57;;;4.60;99.90;;;;;;5094462;28;20050;-72
2022/03/16 05:27:52;;;;;;;25.83;11.57;;;4.60;99.90;;;;;;5094062;28;20481;-72
2022/03/16 05:30:20;;;;;;;25.40;10.52;;;4.60;99.90;;;;;;5094304;28;20028;-72
2022/03/16 05:32:46;;;;;;;24.73;11.43;;;4.60;99.90;;;;;;5093868;28;20020;-72
2022/03/16 05:35:13;;;;;;;24.00;11.20;;;4.60;99.90;;;;;;5092797;28;20031;-72
2022/03/16 05:37:39;;;;;;;24.58;11.30;;;4.60;99.90;;;;;;5094154;28;20020;-72
2022/03/16 05:40:07;;;;;;;22.85;11.05;;;4.60;99.90;;;;;;5092886;28;20099;-73
2022/03/16 05:42:33;;;;;;;27.65;12.30;;;4.60;99.90;;;;;;5094046;28;20027;-71
2022/03/16 05:44:59;;;;;;;26.17;12.07;;;4.60;99.90;;;;;;5092549;28;20023;-71
2022/03/16 05:47:25;;;;;;;25.42;11.30;;;4.60;99.90;;;;;;5093948;28;20485;-72
2022/03/16 05:49:52;;;;;;;24.77;11.57;;;4.60;99.90;;;;;;5093721;28;20054;-72
2022/03/16 05:52:21;;;;;;;28.70;11.25;;;4.60;99.90;;;;;;5093714;28;20031;-72
2022/03/16 05:54:51;;;;;;;25.95;11.75;;;4.60;99.90;;;;;;5093866;28;20473;-71
2022/03/16 05:57:17;;;;;;;26.55;11.77;;;4.60;99.90;;;;;;5092680;28;20381;-71
2022/03/16 05:59:43;;;;;;;28.35;12.32;;;4.60;99.90;;;;;;5093973;28;20016;-71
2022/03/16 06:02:09;;;;;;;25.48;12.18;;;4.60;99.90;;;;;;5092392;28;20020;-72
2022/03/16 06:04:36;;;;;;;23.20;11.43;;;4.60;99.90;;;;;;5092971;28;20016;-72
2022/03/16 06:07:02;;;;;;;25.92;11.40;;;4.60;99.90;;;;;;5093515;28;20039;-72
2022/03/16 06:09:28;;;;;;;25.10;11.07;;;4.60;99.90;;;;;;5093226;28;20032;-72
2022/03/16 06:11:53;;;;;;;26.42;11.13;;;4.60;99.90;;;;;;5093911;28;20031;-71
2022/03/16 06:14:19;;;;;;;22.77;10.85;;;4.60;99.90;;;;;;5093028;28;20047;-72
2022/03/16 06:16:47;;;;;;;20.20;10.20;;;4.60;99.90;;;;;;5093838;28;20024;-73
2022/03/16 06:19:12;;;;;;;29.40;11.52;;;4.60;99.90;;;;;;5093263;28;20028;-72
2022/03/16 06:21:38;;;;;;;22.45;10.10;;;4.70;99.90;;;;;;5093694;28;20342;-72
2022/03/16 06:24:04;;;;;;;27.02;10.35;;;4.70;99.90;;;;;;5092721;28;20028;-72
2022/03/16 06:26:30;;;;;;;26.08;11.27;;;4.80;99.90;;;;;;5093128;28;20111;-71
2022/03/16 06:28:56;;;;;;;28.73;9.80;;;4.70;99.90;;;;;;5093195;28;20066;-72
2022/03/16 06:31:21;;;;;;;19.90;9.40;;;4.80;99.90;;;;;;5092921;28;20073;-74
2022/03/16 06:33:47;;;;;;;26.70;9.68;;;4.80;99.90;;;;;;5093032;28;20036;-74
2022/03/16 06:36:12;;;;;;;22.58;10.60;;;4.90;99.90;;;;;;5091939;28;20020;-74
2022/03/16 06:38:38;;;;;;;25.33;9.60;;;4.90;99.90;;;;;;5093139;28;20166;-75
2022/03/16 06:41:03;;;;;;;21.67;9.48;;;5.00;99.90;;;;;;5092337;28;20033;-75
2022/03/16 06:43:29;;;;;;;22.15;9.93;;;5.10;99.90;;;;;;5094288;28;20111;-76
2022/03/16 06:45:54;;;;;;;21.05;10.00;;;5.20;99.90;;;;;;5096067;28;20127;-75
2022/03/16 06:48:23;;;;;;;24.58;10.60;;;5.30;99.90;;;;;;5095960;28;20035;-76
2022/03/16 06:50:51;;;;;;;22.65;9.82;;;5.30;99.90;;;;;;5096145;28;20513;-75
2022/03/16 06:53:17;;;;;;;22.27;10.27;;;5.40;99.90;;;;;;5097146;28;20056;-76
2022/03/16 06:55:43;;;;;;;21.73;10.25;;;5.50;99.90;;;;;;5096859;28;20117;-76
2022/03/16 06:58:08;;;;;;;19.08;8.75;;;5.60;99.90;;;;;;5097386;28;20031;-76
2022/03/16 07:00:34;;;;;;;19.35;9.10;;;5.70;99.90;;;;;;5097710;28;20531;-76
2022/03/16 07:03:01;;;;;;;19.95;9.25;;;5.90;99.90;;;;;;5097101;28;20026;-76
2022/03/16 07:05:32;;;;;;;19.40;9.60;;;5.90;99.90;;;;;;5097021;28;20078;-76
2022/03/16 07:08:07;;;;;;;18.17;8.30;;;6.00;99.90;;;;;;5096845;28;20404;-76
2022/03/16 07:10:33;;;;;;;19.83;8.95;;;6.00;99.90;;;;;;5096693;28;20020;-76
2022/03/16 07:13:00;;;;;;;16.85;8.13;;;6.10;99.90;;;;;;5095503;28;20027;-77
2022/03/16 07:15:26;;;;;;;18.40;8.40;;;6.20;99.90;;;;;;5095368;28;20104;-75
2022/03/16 07:17:53;;;;;;;19.73;7.75;;;6.30;99.90;;;;;;5096697;28;20190;-75
2022/03/16 07:20:18;;;;;;;16.85;8.05;;;6.40;99.90;;;;;;5096842;28;20020;-75
2022/03/16 07:22:44;;;;;;;17.38;7.88;;;6.50;99.90;;;;;;5095994;28;20024;-75
2022/03/16 07:25:10;;;;;;;16.45;7.55;;;6.60;99.90;;;;;;5096627;28;20024;-75
2022/03/16 07:27:40;;;;;;;15.80;6.75;;;6.70;99.90;;;;;;5096575;28;20040;-75
2022/03/16 07:30:08;;;;;;;18.20;7.22;;;6.80;99.90;;;;;;5096391;28;20473;-76
2022/03/16 07:32:39;;;;;;;18.73;7.25;;;6.90;99.90;;;;;;5095638;28;20370;-76
2022/03/16 07:35:12;;;;;;;16.17;6.85;;;7.00;99.90;;;;;;5096644;28;20024;-76
2022/03/16 07:37:38;;;;;;;16.67;6.53;;;7.10;99.90;;;;;;5095264;28;20127;-76
2022/03/16 07:40:04;;;;;;;18.10;7.28;;;7.10;99.90;;;;;;5094636;28;20020;-76
2022/03/16 07:42:30;;;;;;;14.85;6.70;;;7.20;99.90;;;;;;5096227;28;20024;-76
2022/03/16 07:44:57;;;;;;;14.70;6.90;;;7.40;99.90;;;;;;5075967;28;20025;-76
2022/03/16 07:47:24;;;;;;;15.32;5.55;;;7.40;99.90;;;;;;5076123;28;20466;-76
2022/03/16 07:49:50;;;;;;;16.02;6.00;;;7.50;99.90;;;;;;5074660;28;20099;-76
2022/03/16 07:52:16;;;;;;;10.45;5.15;;;7.60;99.90;;;;;;5076364;28;20071;-76
2022/03/16 07:54:45;;;;;;;16.02;6.45;;;7.70;99.90;;;;;;5092589;28;20030;-76
2022/03/16 07:57:10;;;;;;;13.93;5.95;;;7.80;99.90;;;;;;5094534;28;20088;-76
2022/03/16 07:59:36;;;;;;;12.85;6.00;;;8.00;99.90;;;;;;5095831;28;20027;-76
2022/03/16 08:02:01;;;;;;;10.38;4.82;;;8.10;99.90;;;;;;5095782;28;20027;-76
2022/03/16 08:04:27;;;;;;;11.15;5.65;;;8.30;99.90;;;;;;5095565;28;20023;-76
2022/03/16 08:06:52;;;;;;;11.43;4.78;;;8.30;99.90;;;;;;5095903;28;20485;-77
2022/03/16 08:09:18;;;;;;;14.05;5.45;;;8.40;99.90;;;;;;5095493;28;20032;-76
2022/03/16 08:11:43;;;;;;;16.95;5.43;;;8.60;99.90;;;;;;5095897;28;20035;-76
2022/03/16 08:14:09;;;;;;;11.27;4.40;;;8.60;99.90;;;;;;5095381;28;20020;-76
2022/03/16 08:16:35;;;;;;;10.82;4.22;;;8.70;99.90;;;;;;5095722;28;20465;-76
2022/03/16 08:19:00;;;;;;;16.98;5.40;;;8.70;99.90;;;;;;5095223;28;20024;-76
2022/03/16 08:21:26;;;;;;;10.10;4.07;;;8.80;99.90;;;;;;5095619;28;20039;-76
2022/03/16 08:23:53;;;;;;;9.52;4.20;;;8.90;99.90;;;;;;5093809;28;20024;-77
2022/03/16 08:26:21;;;;;;;9.80;4.03;;;8.90;99.90;;;;;;5094146;28;20042;-76
2022/03/16 08:28:47;;;;;;;8.13;3.15;;;9.00;99.90;;;;;;5094894;28;20436;-77
2022/03/16 08:31:14;;;;;;;9.73;3.92;;;9.10;99.90;;;;;;5095674;28;20128;-77
2022/03/16 08:33:40;;;;;;;10.35;3.95;;;9.30;99.90;;;;;;5093613;28;20024;-76
2022/03/16 08:36:07;;;;;;;8.55;4.03;;;9.50;99.90;;;;;;5093861;28;20020;-77
2022/03/16 08:38:36;;;;;;;8.63;3.55;;;9.60;99.90;;;;;;5093582;28;20020;-77
2022/03/16 08:41:03;;;;;;;7.88;4.03;;;9.70;99.90;;;;;;5095129;28;20087;-76
2022/03/16 08:43:29;;;;;;;6.78;3.35;;;9.80;99.90;;;;;;5093819;28;20477;-77
2022/03/16 08:45:55;;;;;;;8.27;3.90;;;9.90;99.90;;;;;;5094911;28;20080;-77
2022/03/16 08:48:21;;;;;;;8.65;3.70;;;10.00;99.90;;;;;;5094644;28;20027;-77
2022/03/16 08:50:47;;;;;;;9.68;3.45;;;10.10;99.90;;;;;;5093517;28;20024;-77
2022/03/16 08:53:12;;;;;;;9.43;3.58;;;10.10;99.90;;;;;;5093857;28;20370;-77
2022/03/16 08:55:38;;;;;;;8.77;3.40;;;10.20;99.90;;;;;;5094964;28;20407;-77
2022/03/16 08:58:03;;;;;;;6.30;2.92;;;10.30;99.90;;;;;;5094969;28;20507;-77
2022/03/16 09:00:29;;;;;;;5.75;2.67;;;10.30;99.90;;;;;;5095368;28;20093;-77
2022/03/16 09:02:56;;;;;;;9.27;2.55;;;10.30;99.90;;;;;;5094781;28;20024;-77
2022/03/16 09:05:22;;;;;;;7.32;3.03;;;10.30;99.90;;;;;;5093911;28;20028;-76
2022/03/16 09:07:48;;;;;;;6.22;2.53;;;10.40;99.90;;;;;;5093046;28;20392;-77
2022/03/16 09:10:14;;;;;;;8.85;2.85;;;10.50;99.90;;;;;;5094507;28;20020;-77
2022/03/16 09:12:39;;;;;;;7.30;2.65;;;10.60;99.90;;;;;;5093138;28;20469;-77
2022/03/16 09:15:05;;;;;;;6.47;2.25;;;10.80;99.90;;;;;;5094938;28;20028;-76
2022/03/16 09:17:34;;;;;;;6.28;2.67;;;10.90;99.90;;;;;;5093106;28;20473;-77
2022/03/16 09:20:01;;;;;;;6.75;2.83;;;11.00;99.90;;;;;;5094172;28;20024;-76
2022/03/16 09:22:27;;;;;;;8.13;3.25;;;11.10;99.90;;;;;;5094316;28;20031;-77
2022/03/16 09:24:53;;;;;;;6.95;2.28;;;11.20;99.90;;;;;;5094610;28;20020;-77
2022/03/16 09:27:19;;;;;;;8.73;3.38;;;11.30;99.90;;;;;;5092882;28;20103;-77
2022/03/16 09:29:46;;;;;;;6.18;2.67;;;11.30;99.90;;;;;;5092858;28;20502;-77
2022/03/16 09:32:12;;;;;;;9.30;3.67;;;11.30;99.90;;;;;;5094052;28;20023;-76
2022/03/16 09:34:39;;;;;;;7.57;3.22;;;11.30;99.90;;;;;;5094070;28;20082;-76
2022/03/16 09:37:05;;;;;;;8.00;3.28;;;11.30;99.90;;;;;;5094229;28;20030;-77
2022/03/16 09:39:31;;;;;;;6.25;3.22;;;11.30;99.90;;;;;;5094288;28;20063;-76
2022/03/16 09:41:57;;;;;;;8.57;3.33;;;11.30;99.90;;;;;;5094658;28;20520;-77
2022/03/16 09:44:28;;;;;;;7.20;3.03;;;11.20;99.90;;;;;;5094250;28;20043;-77
2022/03/16 09:46:56;;;;;;;9.98;3.47;;;11.20;99.90;;;;;;5093200;28;20073;-76
2022/03/16 09:49:23;;;;;;;7.33;3.33;;;11.30;99.90;;;;;;5093006;28;20031;-76
2022/03/16 09:51:50;;;;;;;6.15;3.20;;;11.40;99.90;;;;;;5094639;28;20034;-77
2022/03/16 09:54:15;;;;;;;7.55;3.92;;;11.50;99.90;;;;;;5095058;28;20032;-76
2022/03/16 09:56:41;;;;;;;8.05;3.53;;;11.60;99.90;;;;;;5092645;28;20024;-77
2022/03/16 09:59:06;;;;;;;8.95;3.95;;;11.70;99.90;;;;;;5094551;28;20377;-77
2022/03/16 10:01:35;;;;;;;5.40;2.60;;;11.80;99.90;;;;;;5094649;28;20024;-77
2022/03/16 10:04:03;;;;;;;9.55;3.40;;;11.90;99.90;;;;;;5093998;28;20024;-77
2022/03/16 10:06:29;;;;;;;8.50;3.13;;;11.90;99.90;;;;;;5094709;28;20149;-77
2022/03/16 10:14:24;;;;;;;7.13;3.35;;;12.10;99.90;;;;;;5094051;28;20031;-76
2022/03/16 10:19:54;;;;;;;7.30;3.28;;;12.20;99.60;;;;;;5094401;28;20063;-76
2022/03/16 10:22:30;;;;;;;7.90;2.70;;;12.10;99.20;;;;;;5093726;28;20024;-76
2022/03/16 10:25:06;;;;;;;6.97;3.10;;;12.10;99.80;;;;;;5093975;28;20012;-77
2022/03/16 10:27:37;;;;;;;10.57;3.17;;;12.20;99.60;;;;;;5093594;28;20085;-76
2022/03/16 10:30:06;;;;;;;7.20;2.92;;;12.20;99.50;;;;;;5093822;28;20534;-77
2022/03/16 10:32:32;;;;;;;;;;;12.40;99.70;;;;;;5094048;28;20066;-77
2022/03/16 10:35:06;;;;;;;8.15;2.40;;;12.50;98.90;;;;;;5092317;28;19928;-77
2022/03/16 10:37:35;;;;;;;7.60;2.60;;;12.50;97.90;;;;;;5092485;28;20021;-77
2022/03/16 10:40:01;;;;;;;;;;;12.70;98.00;;;;;;5094047;28;20021;-77
2022/03/16 10:48:16;;;;;;;6.22;2.67;;;12.90;94.70;;;;;;5093920;28;20101;-76
2022/03/16 10:50:43;;;;;;;6.07;2.73;;;12.90;94.20;;;;;;5093570;28;20020;-76
2022/03/16 10:53:11;;;;;;;5.75;2.92;;;13.00;95.00;;;;;;5093769;28;20032;-77
2022/03/16 10:55:38;;;;;;;9.23;3.10;;;13.10;94.60;;;;;;5091810;28;20031;-77
2022/03/16 10:58:06;;;;;;;5.63;2.75;;;13.30;94.30;;;;;;5092884;28;20393;-77
2022/03/16 11:00:36;;;;;;;7.32;3.38;;;13.40;93.00;;;;;;5093279;28;20055;-77
2022/03/16 11:03:06;;;;;;;8.15;2.20;;;13.50;92.20;;;;;;5091713;28;20044;-77
2022/03/16 11:05:36;;;;;;;5.32;2.45;;;13.70;92.40;;;;;;5092809;28;20049;-77
2022/03/16 11:08:08;;;;;;;7.18;2.72;;;13.80;92.50;;;;;;5091410;28;20401;-77
2022/03/16 11:10:35;;;;;;;8.55;3.53;;;13.90;90.20;;;;;;5092856;28;20020;-77
2022/03/16 11:15:50;;;;;;;6.38;3.00;;;14.30;89.00;;;;;;5094113;28;20094;-76
2022/03/16 11:18:19;;;;;;;6.65;2.63;;;14.20;90.00;;;;;;5092666;28;20073;-75
2022/03/16 11:20:48;;;;;;;7.35;2.55;;;14.30;90.50;;;;;;5094215;28;20058;-77
2022/03/16 11:26:34;;;;;;;7.78;3.15;;;14.90;86.60;;;;;;5094297;28;20035;-77
2022/03/16 11:29:25;;;;;;;4.70;2.30;;;15.10;83.50;;;;;;5093802;28;20553;-76
2022/03/16 11:32:19;;;;;;;5.82;2.75;;;15.20;82.50;;;;;;5096877;28;20024;-73
2022/03/16 11:34:58;;;;;;;8.88;2.88;;;15.10;81.40;;;;;;5097055;28;20031;-75
2022/03/16 11:37:39;;;;;;;8.05;3.00;;;15.10;81.00;;;;;;5094889;28;20036;-76
2022/03/16 11:40:12;;;;;;;6.75;2.70;;;15.10;79.90;;;;;;5096693;28;20119;-76
2022/03/16 11:42:40;;;;;;;10.77;3.55;;;15.20;79.50;;;;;;5096425;28;20023;-76
2022/03/16 11:45:33;;;;;;;5.35;2.67;;;15.20;79.80;;;;;;5096397;28;20107;-75
2022/03/16 11:47:58;;;;;;;7.45;3.40;;;15.30;80.10;;;;;;5094887;28;20027;-74
2022/03/16 11:50:24;;;;;;;6.72;2.90;;;15.50;78.20;;;;;;5095940;28;20477;-75
2022/03/16 11:53:00;;;;;;;10.45;2.83;;;15.70;78.20;;;;;;5094632;28;20016;-74
2022/03/16 11:55:43;;;;;;;5.68;2.22;;;15.90;77.90;;;;;;5095572;28;20049;-74
2022/03/16 11:58:29;;;;;;;5.28;2.67;;;16.00;74.40;;;;;;5095700;28;20069;-74
2022/03/16 12:01:32;;;;;;;4.97;2.47;;;16.00;74.10;;;;;;5095779;28;20024;-74
2022/03/16 12:04:22;;;;;;;5.05;2.30;;;15.90;74.40;;;;;;5095730;28;20024;-75
2022/03/16 12:06:56;;;;;;;5.72;2.65;;;15.80;74.90;;;;;;5094226;28;20024;-74
2022/03/16 12:09:33;;;;;;;5.38;2.83;;;15.60;76.90;;;;;;5094117;28;20446;-74
2022/03/16 12:15:03;;;;;;;5.57;2.92;;;15.50;77.40;;;;;;5095669;28;20078;-74
2022/03/16 12:17:28;;;;;;;8.80;2.97;;;15.60;76.80;;;;;;5093845;28;20016;-74
2022/03/16 12:20:40;;;;;;;6.78;3.17;;;15.60;76.80;;;;;;5095394;28;20160;-75
2022/03/16 12:23:10;;;;;;;6.90;3.38;;;15.60;76.70;;;;;;5067434;28;20114;-73
2022/03/16 12:25:39;;;;;;;5.65;2.97;;;15.60;75.60;;;;;;5094900;28;20048;-73
2022/03/16 12:31:11;;;;;;;4.30;2.33;;;15.60;76.00;;;;;;5095491;28;20077;-73
2022/03/16 12:33:45;;;;;;;6.60;3.20;;;15.60;76.80;;;;;;5094984;28;20032;-78
2022/03/16 12:36:31;;;;;;;6.43;3.20;;;15.60;77.80;;;;;;5094494;28;20024;-78
2022/03/16 12:38:58;;;;;;;7.07;3.65;;;15.50;77.50;;;;;;5095901;28;20099;-78
2022/03/16 12:44:11;;;;;;;9.02;4.15;;;15.30;78.40;;;;;;5095877;28;20031;-73
2022/03/16 12:46:37;;;;;;;8.00;3.80;;;15.10;79.70;;;;;;5094722;28;20474;-73
2022/03/16 12:49:04;;;;;;;9.02;4.10;;;15.00;80.50;;;;;;5095083;28;20027;-72
2022/03/16 12:51:44;;;;;;;6.60;3.47;;;14.90;81.10;;;;;;5093436;28;20020;-73
2022/03/16 12:54:14;;;;;;;7.97;3.75;;;14.90;81.60;;;;;;5094765;28;20481;-73
2022/03/16 12:56:53;;;;;;;8.20;3.65;;;14.90;82.80;;;;;;5093209;28;20016;-73
2022/03/16 12:59:30;;;;;;;8.02;3.92;;;14.90;82.90;;;;;;5094473;28;20099;-73
2022/03/16 13:01:57;;;;;;;9.38;4.25;;;14.90;83.50;;;;;;5093173;28;20423;-73
2022/03/16 13:04:24;;;;;;;8.70;4.30;;;14.80;82.60;;;;;;5094887;28;20023;-73
2022/03/16 13:06:56;;;;;;;7.15;3.92;;;14.70;83.40;;;;;;5093046;28;20066;-73
2022/03/16 13:09:33;;;;;;;7.80;4.05;;;14.60;85.00;;;;;;5094019;28;20213;-73
2022/03/16 13:12:12;;;;;;;10.23;4.30;;;13.60;84.40;;;;;;5093143;28;20024;-73
2022/03/16 13:14:47;;;;;;;9.23;4.18;;;14.40;85.40;;;;;;5094380;28;20024;-74